createdAt,value
2019-03-08T00:01:49.650Z,99310.34
2019-03-08T00:04:38.569Z,99300.56
2019-03-08T00:07:27.392Z,99288.73
2019-03-08T00:10:18.002Z,99260.66
2019-03-08T00:13:06.811Z,99298.81
2019-03-08T00:15:57.509Z,99294.67
2019-03-08T00:18:39.618Z,99249.37
2019-03-08T00:21:28.509Z,99320.50
2019-03-08T00:24:17.533Z,99314.98
2019-03-08T00:27:06.407Z,99315.77
2019-03-08T00:29:55.341Z,99314.39
2019-03-08T00:32:44.172Z,99330.92
2019-03-08T00:35:33.048Z,99337.59
2019-03-08T00:38:21.881Z,99322.44
2019-03-08T00:41:10.823Z,99335.05
2019-03-08T00:43:59.709Z,99277.03
2019-03-08T00:46:50.254Z,99338.97
2019-03-08T00:49:39.073Z,99344.48
2019-03-08T00:52:28.147Z,99340.56
2019-03-08T00:55:16.957Z,99338.02
2019-03-08T00:58:05.889Z,99350.42
2019-03-08T01:00:54.876Z,99367.17
2019-03-08T01:03:43.708Z,99346.29
2019-03-08T01:06:32.649Z,99334.11
2019-03-08T01:09:21.534Z,99353.17
2019-03-08T01:12:10.439Z,99355.58
2019-03-08T01:14:59.283Z,99307.97
2019-03-08T01:17:48.162Z,99368.76
2019-03-08T01:20:29.876Z,99380.94
2019-03-08T01:23:18.728Z,99324.48
2019-03-08T01:26:07.609Z,99378.41
2019-03-08T01:28:56.428Z,99382.09
2019-03-08T01:31:45.308Z,99391.31
2019-03-08T01:34:34.223Z,99399.14
2019-03-08T01:37:23.013Z,99410.31
2019-03-08T01:40:11.934Z,99406.09
2019-03-08T01:43:00.886Z,99404.06
2019-03-08T01:45:42.258Z,99413.64
2019-03-08T01:48:31.386Z,99345.31
2019-03-08T01:57:08.672Z,99427.45
2019-03-08T01:59:57.558Z,99424.98
2019-03-08T02:02:46.628Z,99444.37
2019-03-08T02:05:37.256Z,99434.45
2019-03-08T02:08:26.122Z,99443.55
2019-03-08T02:11:15.105Z,99437.51
2019-03-08T02:14:03.983Z,99446.27
2019-03-08T02:16:52.936Z,99444.22
2019-03-08T02:19:41.739Z,99445.31
2019-03-08T02:22:30.563Z,99446.37
2019-03-08T02:25:19.439Z,99455.92
2019-03-08T02:28:08.665Z,99466.05
2019-03-08T02:30:58.883Z,99464.57
2019-03-08T02:33:47.701Z,99463.09
2019-03-08T02:36:36.515Z,99456.92
2019-03-08T02:39:25.370Z,99407.81
2019-03-08T02:42:08.309Z,99467.63
2019-03-08T02:44:57.151Z,99446.66
2019-03-08T02:47:46.005Z,99473.63
2019-03-08T02:50:34.881Z,99484.18
2019-03-08T02:53:23.752Z,99478.23
2019-03-08T02:56:12.525Z,99476.20
2019-03-08T02:59:01.387Z,99484.78
2019-03-08T03:01:50.212Z,99430.06
2019-03-08T03:04:39.011Z,99418.33
2019-03-08T03:07:20.609Z,99497.30
2019-03-08T03:13:25.102Z,99493.73
2019-03-08T03:16:13.975Z,99506.11
2019-03-08T03:19:02.806Z,99494.33
2019-03-08T03:21:51.613Z,99501.42
2019-03-08T03:24:40.464Z,99498.67
2019-03-08T03:27:29.267Z,99510.23
2019-03-08T03:30:37.415Z,99451.27
2019-03-08T03:33:26.249Z,99517.34
2019-03-08T03:36:15.099Z,99514.59
2019-03-08T03:42:24.844Z,99534.43
2019-03-08T03:45:33.932Z,99538.78
2019-03-08T03:48:24.553Z,99545.43
2019-03-08T03:51:13.446Z,99547.03
2019-03-08T03:54:02.258Z,99502.48
2019-03-08T03:56:51.091Z,99571.11
2019-03-08T03:59:39.962Z,99580.73
2019-03-08T04:02:28.786Z,99601.47
2019-03-08T04:05:17.781Z,99612.58
2019-03-08T04:08:06.618Z,99617.54
2019-03-08T04:10:55.435Z,99620.20
2019-03-08T04:13:44.286Z,99626.70
2019-03-08T04:16:33.084Z,99630.30
2019-03-08T04:19:21.919Z,99631.11
2019-03-08T04:22:10.743Z,99639.61
2019-03-08T04:25:01.368Z,99649.09
2019-03-08T04:27:50.213Z,99644.07
2019-03-08T04:30:40.720Z,99660.64
2019-03-08T04:33:29.569Z,99666.27
2019-03-08T04:36:18.375Z,99661.69
2019-03-08T04:39:28.111Z,99674.27
2019-03-08T04:42:16.934Z,99678.57
2019-03-08T04:45:26.682Z,99686.80
2019-03-08T04:48:15.473Z,99666.73
2019-03-08T04:51:04.374Z,99663.87
2019-03-08T04:53:53.201Z,99702.77
2019-03-08T04:56:42.023Z,99705.27
2019-03-08T04:59:30.902Z,99704.11
2019-03-08T05:02:19.748Z,99698.60
2019-03-08T05:05:08.645Z,99707.27
2019-03-08T05:07:50.480Z,99643.77
2019-03-08T05:10:39.373Z,99707.25
2019-03-08T05:13:28.212Z,99718.89
2019-03-08T05:16:17.014Z,99722.52
2019-03-08T05:19:05.917Z,99723.42
2019-03-08T05:21:54.740Z,99667.45
2019-03-08T05:24:43.553Z,99720.80
2019-03-08T05:27:32.388Z,99729.02
2019-03-08T05:30:21.301Z,99674.19
2019-03-08T05:33:10.174Z,99732.44
2019-03-08T05:35:58.985Z,99747.52
2019-03-08T05:38:47.824Z,99754.92
2019-03-08T05:41:29.856Z,99755.74
2019-03-08T05:44:18.731Z,99755.16
2019-03-08T05:47:07.625Z,99763.86
2019-03-08T05:49:56.460Z,99770.47
2019-03-08T05:52:45.351Z,99779.17
2019-03-08T05:55:34.201Z,99780.22
2019-03-08T05:58:22.984Z,99703.24
2019-03-08T06:01:11.815Z,99793.82
2019-03-08T06:04:00.612Z,99732.56
2019-03-08T06:06:31.838Z,99815.12
2019-03-08T06:09:01.290Z,99812.38
2019-03-08T06:11:30.872Z,99824.95
2019-03-08T06:14:00.323Z,99826.80
2019-03-08T06:16:29.896Z,99830.56
2019-03-08T06:18:59.470Z,99843.72
2019-03-08T06:21:29.225Z,99853.80
2019-03-08T06:23:58.773Z,99860.89
2019-03-08T06:26:31.402Z,99870.95
2019-03-08T06:29:00.901Z,99874.17
2019-03-08T06:31:49.790Z,99885.84
2019-03-08T06:34:38.601Z,99893.17
2019-03-08T06:37:19.927Z,99899.37
2019-03-08T06:40:29.739Z,99881.89
2019-03-08T06:43:18.541Z,99908.19
2019-03-08T06:46:07.366Z,99923.12
2019-03-08T06:48:56.246Z,99930.09
2019-03-08T06:51:45.072Z,99946.95
2019-03-08T06:54:33.965Z,99944.91
2019-03-08T06:57:22.777Z,99946.41
2019-03-08T07:00:51.553Z,99952.59
2019-03-08T07:03:40.391Z,99961.54
2019-03-08T07:06:29.362Z,99907.68
2019-03-08T07:09:18.193Z,99977.17
2019-03-08T07:12:07.011Z,99986.91
2019-03-08T07:14:55.848Z,99993.92
2019-03-08T07:17:37.044Z,99997.80
2019-03-08T07:20:44.904Z,100012.03
2019-03-08T07:23:52.727Z,100021.22
2019-03-08T07:27:00.618Z,100027.17
2019-03-08T07:30:08.485Z,100036.83
2019-03-08T07:33:16.363Z,100044.63
2019-03-08T07:36:24.886Z,100048.09
2019-03-08T07:43:01.533Z,100006.00
2019-03-08T07:46:02.758Z,100079.05
2019-03-08T07:52:09.881Z,100093.72
2019-03-08T08:04:12.118Z,100120.59
2019-03-08T08:09:56.469Z,100130.02
2019-03-08T08:13:04.690Z,100135.28
2019-03-08T08:19:22.086Z,100156.44
2019-03-08T08:22:12.254Z,100160.02
2019-03-08T08:25:20.245Z,100176.50
2019-03-08T08:34:33.353Z,100183.14
2019-03-08T08:37:19.416Z,100189.34
2019-03-08T08:40:48.482Z,100194.64
2019-03-08T08:43:56.504Z,100192.61
2019-03-08T08:52:56.124Z,100229.28
2019-03-08T08:56:03.978Z,100239.61
2019-03-08T08:59:11.871Z,100186.87
2019-03-08T09:01:58.138Z,100253.08
2019-03-08T09:08:05.574Z,100251.67
2019-03-08T09:11:13.492Z,100258.58
2019-03-08T09:14:21.364Z,100259.41
2019-03-08T09:17:29.318Z,100268.21
2019-03-08T09:20:37.223Z,100262.05
2019-03-08T09:23:25.838Z,100276.73
2019-03-08T09:26:33.818Z,100285.96
2019-03-08T09:29:41.728Z,100286.67
2019-03-08T09:32:30.307Z,100236.59
2019-03-08T09:38:33.804Z,100293.30
2019-03-08T09:41:41.713Z,100292.78
2019-03-08T09:44:42.894Z,100295.80
2019-03-08T09:47:50.763Z,100302.95
2019-03-08T09:53:54.642Z,100305.30
2019-03-08T09:57:02.751Z,100321.81
2019-03-08T10:00:10.694Z,100257.86
2019-03-08T10:03:18.569Z,100264.97
2019-03-08T10:09:35.843Z,100347.62
2019-03-08T10:12:43.719Z,100339.63
2019-03-08T10:18:47.120Z,100346.34
2019-03-08T10:21:54.973Z,100344.31
2019-03-08T10:25:02.895Z,100350.55
2019-03-08T10:28:10.781Z,100357.25
2019-03-08T10:31:18.903Z,100302.02
2019-03-08T10:34:26.932Z,100377.94
2019-03-08T10:40:44.186Z,100387.59
2019-03-08T10:43:28.091Z,100389.87
2019-03-08T10:46:36.022Z,100391.72
2019-03-08T10:52:53.279Z,100404.84
2019-03-08T10:56:01.140Z,100416.62
2019-03-08T11:02:05.296Z,100425.16
2019-03-08T11:05:13.213Z,100429.66
2019-03-08T11:14:16.353Z,100452.47
2019-03-08T11:17:24.287Z,100438.81
2019-03-08T11:20:32.258Z,100412.42
2019-03-08T11:26:36.137Z,100438.42
2019-03-08T11:29:44.017Z,100465.25
2019-03-08T11:35:51.157Z,100466.41
2019-03-08T11:38:59.009Z,100458.83
2019-03-08T11:44:36.536Z,100462.28
2019-03-08T11:47:44.394Z,100465.97
2019-03-08T11:50:52.261Z,100456.78
2019-03-08T11:54:00.114Z,100457.94
2019-03-08T11:57:05.681Z,100470.17
2019-03-08T11:59:52.930Z,100482.14
2019-03-08T12:02:37.824Z,100478.69
2019-03-08T12:05:10.276Z,100485.92
2019-03-08T12:07:57.487Z,100485.59
2019-03-08T12:10:37.527Z,100494.11
2019-03-08T12:13:08.833Z,100493.19
2019-03-08T12:15:46.250Z,100490.42
2019-03-08T12:18:23.015Z,100487.89
2019-03-08T12:21:00.087Z,100496.08
2019-03-08T12:23:39.942Z,100489.04
2019-03-08T12:26:22.702Z,100482.59
2019-03-08T12:28:56.544Z,100481.67
2019-03-08T12:31:36.851Z,100473.73
2019-03-08T12:34:26.161Z,100482.61
2019-03-08T12:36:57.317Z,100466.73
2019-03-08T12:39:35.071Z,100464.64
2019-03-08T12:42:09.354Z,100477.05
2019-03-08T12:44:50.305Z,100469.31
2019-03-08T12:47:21.421Z,100459.23
2019-03-08T12:49:58.118Z,100470.73
2019-03-08T12:52:29.261Z,100475.75
2019-03-08T12:55:09.409Z,100471.31
2019-03-08T12:57:55.568Z,100466.91
2019-03-08T13:00:26.800Z,100461.34
2019-03-08T13:03:13.841Z,100468.71
2019-03-08T13:05:58.071Z,100469.88
2019-03-08T13:08:36.251Z,100489.24
2019-03-08T13:11:05.905Z,100478.20
2019-03-08T13:13:35.391Z,100474.09
2019-03-08T13:16:05.215Z,100465.14
2019-03-08T13:18:34.726Z,100476.01
2019-03-08T13:21:04.319Z,100482.72
2019-03-08T13:23:33.783Z,100481.33
2019-03-08T13:26:03.302Z,100477.44
2019-03-08T13:28:33.733Z,100479.30
2019-03-08T13:31:03.560Z,100481.73
2019-03-08T13:33:33.109Z,100484.16
2019-03-08T13:36:02.563Z,100483.95
2019-03-08T13:38:32.105Z,100482.58
2019-03-08T13:41:01.602Z,100483.28
2019-03-08T13:43:31.251Z,100482.13
2019-03-08T13:46:00.761Z,100485.45
2019-03-08T13:48:30.263Z,100485.34
2019-03-08T13:50:59.753Z,100489.36
2019-03-08T13:53:29.431Z,100492.24
2019-03-08T13:55:59.035Z,100491.55
2019-03-08T13:58:28.796Z,100489.69
2019-03-08T14:00:58.846Z,100495.91
2019-03-08T14:03:28.321Z,100502.11
2019-03-08T14:05:57.972Z,100500.63
2019-03-08T14:08:27.509Z,100493.57
2019-03-08T14:10:57.185Z,100497.24
2019-03-08T14:13:26.765Z,100498.16
2019-03-08T14:15:56.670Z,100490.53
2019-03-08T14:18:26.203Z,100501.72
2019-03-08T14:20:55.740Z,100507.48
2019-03-08T14:23:25.296Z,100498.84
2019-03-08T14:25:54.991Z,100501.61
2019-03-08T14:28:24.480Z,100501.37
2019-03-08T14:31:12.579Z,100494.23
2019-03-08T14:33:41.579Z,100476.71
2019-03-08T14:36:11.205Z,100492.16
2019-03-08T14:38:40.699Z,100486.62
2019-03-08T14:44:29.822Z,100490.29
2019-03-08T14:47:13.227Z,100490.97
2019-03-08T14:50:02.102Z,100493.48
2019-03-08T14:52:55.156Z,100489.08
2019-03-08T14:55:34.708Z,100491.37
2019-03-08T14:58:23.522Z,100491.11
2019-03-08T15:01:12.438Z,100485.09
2019-03-08T15:04:01.356Z,100496.39
2019-03-08T15:06:50.314Z,100481.39
2019-03-08T15:09:39.526Z,100488.31
2019-03-08T15:12:28.953Z,100485.09
2019-03-08T15:15:18.335Z,100480.27
2019-03-08T15:18:07.642Z,100481.57
2019-03-08T15:20:58.545Z,100454.10
2019-03-08T15:23:50.907Z,100477.30
2019-03-08T15:26:38.053Z,100478.31
2019-03-08T15:29:26.863Z,100487.44
2019-03-08T15:32:15.856Z,100489.27
2019-03-08T15:38:33.887Z,100492.27
2019-03-08T15:41:25.052Z,100429.27
2019-03-08T15:44:06.327Z,100497.58
2019-03-08T15:46:55.827Z,100507.03
2019-03-08T15:49:45.885Z,100504.38
2019-03-08T15:52:34.757Z,100500.38
2019-03-08T15:55:23.761Z,100433.20
2019-03-08T15:58:12.581Z,100492.09
2019-03-08T16:01:01.426Z,100491.20
2019-03-08T16:03:50.256Z,100498.59
2019-03-08T16:06:40.034Z,100494.44
2019-03-08T16:09:10.410Z,100497.69
2019-03-08T16:11:59.421Z,100491.25
2019-03-08T16:14:48.263Z,100493.56
2019-03-08T16:17:37.440Z,100497.00
2019-03-08T16:20:26.382Z,100502.44
2019-03-08T16:23:17.026Z,100500.94
2019-03-08T16:26:05.946Z,100494.73
2019-03-08T16:28:56.474Z,100497.73
2019-03-08T16:34:39.365Z,100486.47
2019-03-08T16:37:47.101Z,100487.77
2019-03-08T16:40:54.965Z,100482.22
2019-03-08T16:44:02.686Z,100486.61
2019-03-08T16:47:12.436Z,100481.69
2019-03-08T16:50:22.361Z,100484.46
2019-03-08T16:56:24.134Z,100485.27
2019-03-08T16:59:08.511Z,100479.75
2019-03-08T17:04:49.157Z,100457.74
2019-03-08T17:07:23.126Z,100476.16
2019-03-08T17:09:57.165Z,100476.39
2019-03-08T17:12:38.739Z,100463.59
2019-03-08T17:15:27.427Z,100466.27
2019-03-08T17:18:11.395Z,100461.43
2019-03-08T17:20:46.452Z,100461.89
2019-03-08T17:23:26.738Z,100465.90
2019-03-08T17:26:03.897Z,100464.65
2019-03-08T17:28:49.007Z,100472.20
2019-03-08T17:31:25.725Z,100478.88
2019-03-08T17:33:55.049Z,100479.80
2019-03-08T17:36:32.201Z,100482.33
2019-03-08T17:39:03.337Z,100490.38
2019-03-08T17:41:40.237Z,100495.11
2019-03-08T17:44:26.204Z,100492.13
2019-03-08T17:47:03.452Z,100496.82
2019-03-08T17:49:50.699Z,100496.36
2019-03-08T17:52:21.996Z,100498.88
2019-03-08T17:55:08.849Z,100504.77
2019-03-08T17:57:43.817Z,100509.23
2019-03-08T18:00:34.314Z,100505.78
2019-03-08T18:03:05.482Z,100517.73
2019-03-08T18:05:34.857Z,100521.17
2019-03-08T18:08:14.691Z,100522.09
2019-03-08T18:10:52.083Z,100521.63
2019-03-08T18:13:25.953Z,100514.03
2019-03-08T18:15:59.746Z,100517.11
2019-03-08T18:18:37.918Z,100520.23
2019-03-08T18:21:14.820Z,100519.77
2019-03-08T18:23:48.638Z,100520.91
2019-03-08T18:26:29.762Z,100521.59
2019-03-08T18:29:10.115Z,100527.20
2019-03-08T18:31:50.348Z,100521.34
2019-03-08T18:34:37.779Z,100527.55
2019-03-08T18:37:11.511Z,100527.40
2019-03-08T18:39:45.241Z,100528.91
2019-03-08T18:42:32.834Z,100518.87
2019-03-08T18:45:15.110Z,100514.50
2019-03-08T18:47:48.688Z,100515.73
2019-03-08T18:50:20.841Z,100517.56
2019-03-08T18:53:02.105Z,100517.91
2019-03-08T18:56:10.104Z,100517.21
2019-03-08T18:59:17.978Z,100515.92
2019-03-08T19:02:25.999Z,100526.25
2019-03-08T19:05:33.938Z,100467.89
2019-03-08T19:08:41.879Z,100503.58
2019-03-08T19:11:49.850Z,100528.72
2019-03-08T19:14:57.795Z,100528.30
2019-03-08T19:18:05.729Z,100536.69
2019-03-08T19:21:13.653Z,100553.22
2019-03-08T19:24:21.619Z,100544.25
2019-03-08T19:27:29.557Z,100542.40
2019-03-08T19:30:37.501Z,100506.00
2019-03-08T19:33:45.543Z,100521.94
2019-03-08T19:43:17.826Z,100522.53
2019-03-08T19:46:05.153Z,100520.22
2019-03-08T19:49:13.099Z,100515.14
2019-03-08T19:52:21.006Z,100510.06
2019-03-08T19:55:28.950Z,100504.98
2019-03-08T19:58:36.991Z,100499.91
2019-03-08T20:01:44.925Z,100494.52
2019-03-08T20:04:52.872Z,100484.48
2019-03-08T20:08:00.784Z,100493.42
2019-03-08T20:14:07.921Z,100483.27
2019-03-08T20:17:15.857Z,100484.72
2019-03-08T20:20:44.643Z,100487.59
2019-03-08T20:23:52.607Z,100424.95
2019-03-08T20:27:00.543Z,100470.79
2019-03-08T20:32:58.562Z,100476.22
2019-03-08T20:36:06.427Z,100433.33
2019-03-08T20:39:15.859Z,100478.38
2019-03-08T20:45:19.742Z,100467.87
2019-03-08T20:47:59.791Z,100433.12
2019-03-08T20:50:48.732Z,100462.98
2019-03-08T20:53:37.566Z,100450.78
2019-03-08T20:56:26.424Z,100447.09
2019-03-08T20:59:15.376Z,100447.51
2019-03-08T21:02:04.306Z,100442.43
2019-03-08T21:04:53.176Z,100444.23
2019-03-08T21:07:42.048Z,100445.79
2019-03-08T21:10:30.904Z,100431.88
2019-03-08T21:13:19.755Z,100429.23
2019-03-08T21:16:08.695Z,100425.84
2019-03-08T21:18:57.639Z,100419.94
2019-03-08T21:21:46.450Z,100392.66
2019-03-08T21:24:35.314Z,100362.44
2019-03-08T21:27:24.174Z,100426.28
2019-03-08T21:30:32.326Z,100422.74
2019-03-08T21:33:21.168Z,100421.13
2019-03-08T21:36:09.991Z,100416.19
2019-03-08T21:38:58.842Z,100420.07
2019-03-08T21:41:47.733Z,100417.16
2019-03-08T21:44:36.620Z,100405.09
2019-03-08T21:47:25.413Z,100406.30
2019-03-08T21:50:08.838Z,100410.77
2019-03-08T21:52:57.688Z,100406.17
2019-03-08T21:55:46.529Z,100400.20
2019-03-08T21:58:35.431Z,100387.11
2019-03-08T22:01:24.261Z,100382.75
2019-03-08T22:07:09.265Z,100378.56
2019-03-08T22:10:17.217Z,100347.81
2019-03-08T22:13:06.146Z,100367.75
2019-03-08T22:15:55.071Z,100367.27
2019-03-08T22:18:43.875Z,100351.92
2019-03-08T22:21:32.820Z,100349.17
2019-03-08T22:24:21.680Z,100351.33
2019-03-08T22:27:10.551Z,100342.30
2019-03-08T22:29:59.395Z,100341.16
2019-03-08T22:32:48.286Z,100336.94
2019-03-08T22:35:37.202Z,100331.60
2019-03-08T22:38:26.047Z,100326.34
2019-03-08T22:41:14.982Z,100322.11
2019-03-08T22:44:03.784Z,100311.27
2019-03-08T22:46:46.555Z,100305.35
2019-03-08T22:49:56.394Z,100311.80
2019-03-08T22:52:45.279Z,100293.27
2019-03-08T22:55:55.633Z,100287.81
2019-03-08T22:58:44.572Z,100290.64
2019-03-08T23:01:52.458Z,100285.19
2019-03-08T23:04:41.327Z,100282.00
2019-03-08T23:07:30.274Z,100274.61
2019-03-08T23:10:19.168Z,100271.11
2019-03-08T23:13:08.006Z,100273.66
2019-03-08T23:15:56.891Z,100262.69
2019-03-08T23:18:45.766Z,100254.00
2019-03-08T23:21:34.686Z,100256.31
2019-03-08T23:24:23.505Z,100254.73
2019-03-08T23:27:12.266Z,100246.27
2019-03-08T23:29:55.272Z,100233.44
2019-03-08T23:35:53.511Z,100230.03
2019-03-08T23:38:42.341Z,100224.55
2019-03-08T23:41:31.175Z,100219.19
2019-03-08T23:44:20.020Z,100204.97
2019-03-08T23:47:08.921Z,100213.14
2019-03-08T23:49:57.758Z,100179.81
2019-03-08T23:52:46.663Z,100208.11
2019-03-08T23:55:35.491Z,100202.48
2019-03-08T23:58:24.338Z,100206.75
